sensor_id;sensor_type;location;lat;lon;timestamp;P1;durP1;ratioP1;P2;durP2;ratioP2
76194;SDS011;64964;48.694;21.206;2023-06-10T00:01:40;3.33;;;2.90;;
76194;SDS011;64964;48.694;21.206;2023-06-10T00:04:06;3.78;;;3.30;;
76194;SDS011;64964;48.694;21.206;2023-06-10T00:06:32;4.93;;;2.87;;
76194;SDS011;64964;48.694;21.206;2023-06-10T00:09:04;5.95;;;3.10;;
76194;SDS011;64964;48.694;21.206;2023-06-10T00:11:32;3.80;;;3.00;;
76194;SDS011;64964;48.694;21.206;2023-06-10T00:13:58;6.50;;;3.30;;
76194;SDS011;64964;48.694;21.206;2023-06-10T00:16:24;3.40;;;2.78;;
76194;SDS011;64964;48.694;21.206;2023-06-10T00:18:50;3.55;;;2.95;;
76194;SDS011;64964;48.694;21.206;2023-06-10T00:21:16;4.57;;;2.67;;
76194;SDS011;64964;48.694;21.206;2023-06-10T00:23:42;3.00;;;2.70;;
76194;SDS011;64964;48.694;21.206;2023-06-10T00:26:08;6.18;;;3.30;;
76194;SDS011;64964;48.694;21.206;2023-06-10T00:28:34;4.27;;;2.97;;
76194;SDS011;64964;48.694;21.206;2023-06-10T00:30:59;3.20;;;2.50;;
76194;SDS011;64964;48.694;21.206;2023-06-10T00:33:25;5.07;;;3.00;;
76194;SDS011;64964;48.694;21.206;2023-06-10T00:35:50;4.10;;;2.87;;
76194;SDS011;64964;48.694;21.206;2023-06-10T00:38:15;3.45;;;2.85;;
76194;SDS011;64964;48.694;21.206;2023-06-10T00:40:41;5.10;;;3.07;;
76194;SDS011;64964;48.694;21.206;2023-06-10T00:43:07;3.73;;;2.77;;
76194;SDS011;64964;48.694;21.206;2023-06-10T00:45:32;3.65;;;2.90;;
76194;SDS011;64964;48.694;21.206;2023-06-10T00:47:58;3.00;;;2.70;;
76194;SDS011;64964;48.694;21.206;2023-06-10T00:50:25;5.30;;;2.70;;
76194;SDS011;64964;48.694;21.206;2023-06-10T00:52:50;6.75;;;3.00;;
76194;SDS011;64964;48.694;21.206;2023-06-10T00:55:17;5.17;;;3.30;;
76194;SDS011;64964;48.694;21.206;2023-06-10T00:57:44;5.38;;;2.85;;
76194;SDS011;64964;48.694;21.206;2023-06-10T01:00:11;3.53;;;2.97;;
76194;SDS011;64964;48.694;21.206;2023-06-10T01:02:37;3.63;;;2.97;;
76194;SDS011;64964;48.694;21.206;2023-06-10T01:05:03;3.63;;;2.95;;
76194;SDS011;64964;48.694;21.206;2023-06-10T01:07:53;7.27;;;3.70;;
76194;SDS011;64964;48.694;21.206;2023-06-10T01:10:32;5.13;;;3.10;;
76194;SDS011;64964;48.694;21.206;2023-06-10T01:13:03;4.05;;;3.03;;
76194;SDS011;64964;48.694;21.206;2023-06-10T01:15:33;3.53;;;2.85;;
76194;SDS011;64964;48.694;21.206;2023-06-10T01:18:00;5.25;;;3.17;;
76194;SDS011;64964;48.694;21.206;2023-06-10T01:20:28;4.82;;;3.35;;
76194;SDS011;64964;48.694;21.206;2023-06-10T01:22:55;3.83;;;2.97;;
76194;SDS011;64964;48.694;21.206;2023-06-10T01:25:22;4.18;;;2.95;;
76194;SDS011;64964;48.694;21.206;2023-06-10T01:27:58;4.05;;;3.15;;
76194;SDS011;64964;48.694;21.206;2023-06-10T01:30:30;5.57;;;3.10;;
76194;SDS011;64964;48.694;21.206;2023-06-10T01:33:02;3.50;;;2.80;;
76194;SDS011;64964;48.694;21.206;2023-06-10T01:35:31;4.70;;;3.10;;
76194;SDS011;64964;48.694;21.206;2023-06-10T01:37:59;7.43;;;3.30;;
76194;SDS011;64964;48.694;21.206;2023-06-10T01:40:26;4.35;;;3.08;;
76194;SDS011;64964;48.694;21.206;2023-06-10T01:42:53;3.30;;;3.00;;
76194;SDS011;64964;48.694;21.206;2023-06-10T01:45:19;4.63;;;3.30;;
76194;SDS011;64964;48.694;21.206;2023-06-10T01:47:44;4.23;;;2.70;;
76194;SDS011;64964;48.694;21.206;2023-06-10T01:50:10;3.88;;;3.17;;
76194;SDS011;64964;48.694;21.206;2023-06-10T01:52:35;5.47;;;3.10;;
76194;SDS011;64964;48.694;21.206;2023-06-10T01:55:00;3.00;;;2.67;;
76194;SDS011;64964;48.694;21.206;2023-06-10T01:57:26;3.13;;;2.83;;
76194;SDS011;64964;48.694;21.206;2023-06-10T01:59:51;3.87;;;3.00;;
76194;SDS011;64964;48.694;21.206;2023-06-10T02:02:16;3.10;;;2.80;;
76194;SDS011;64964;48.694;21.206;2023-06-10T02:04:42;4.50;;;2.80;;
76194;SDS011;64964;48.694;21.206;2023-06-10T02:07:07;4.27;;;3.00;;
76194;SDS011;64964;48.694;21.206;2023-06-10T02:09:32;3.03;;;2.50;;
76194;SDS011;64964;48.694;21.206;2023-06-10T02:12:00;4.53;;;2.97;;
76194;SDS011;64964;48.694;21.206;2023-06-10T02:14:27;4.32;;;3.00;;
76194;SDS011;64964;48.694;21.206;2023-06-10T02:16:52;5.60;;;3.00;;
76194;SDS011;64964;48.694;21.206;2023-06-10T02:19:21;4.22;;;2.75;;
76194;SDS011;64964;48.694;21.206;2023-06-10T02:21:48;4.85;;;3.03;;
76194;SDS011;64964;48.694;21.206;2023-06-10T02:24:14;4.80;;;3.00;;
76194;SDS011;64964;48.694;21.206;2023-06-10T02:26:40;4.57;;;2.73;;
76194;SDS011;64964;48.694;21.206;2023-06-10T02:29:05;4.57;;;2.80;;
76194;SDS011;64964;48.694;21.206;2023-06-10T02:31:31;4.63;;;3.20;;
76194;SDS011;64964;48.694;21.206;2023-06-10T02:33:56;3.10;;;2.80;;
76194;SDS011;64964;48.694;21.206;2023-06-10T02:36:22;4.43;;;3.00;;
76194;SDS011;64964;48.694;21.206;2023-06-10T02:38:49;4.57;;;2.88;;
76194;SDS011;64964;48.694;21.206;2023-06-10T02:41:14;3.33;;;2.83;;
76194;SDS011;64964;48.694;21.206;2023-06-10T02:43:40;4.77;;;2.90;;
76194;SDS011;64964;48.694;21.206;2023-06-10T02:46:05;3.87;;;2.93;;
76194;SDS011;64964;48.694;21.206;2023-06-10T02:48:31;3.60;;;2.90;;
76194;SDS011;64964;48.694;21.206;2023-06-10T02:50:56;4.28;;;3.00;;
76194;SDS011;64964;48.694;21.206;2023-06-10T02:53:21;4.73;;;2.83;;
76194;SDS011;64964;48.694;21.206;2023-06-10T02:55:46;4.70;;;3.20;;
76194;SDS011;64964;48.694;21.206;2023-06-10T02:58:12;3.57;;;2.73;;
76194;SDS011;64964;48.694;21.206;2023-06-10T03:00:37;5.27;;;3.50;;
76194;SDS011;64964;48.694;21.206;2023-06-10T03:03:05;4.53;;;3.05;;
76194;SDS011;64964;48.694;21.206;2023-06-10T03:05:31;4.07;;;3.20;;
76194;SDS011;64964;48.694;21.206;2023-06-10T03:07:56;3.63;;;3.00;;
76194;SDS011;64964;48.694;21.206;2023-06-10T03:10:21;4.20;;;2.97;;
76194;SDS011;64964;48.694;21.206;2023-06-10T03:12:47;4.60;;;3.03;;
76194;SDS011;64964;48.694;21.206;2023-06-10T03:15:12;3.17;;;2.87;;
76194;SDS011;64964;48.694;21.206;2023-06-10T03:17:38;3.20;;;2.63;;
76194;SDS011;64964;48.694;21.206;2023-06-10T03:20:03;8.87;;;3.47;;
76194;SDS011;64964;48.694;21.206;2023-06-10T03:22:30;3.60;;;2.92;;
76194;SDS011;64964;48.694;21.206;2023-06-10T03:24:56;4.68;;;3.50;;
76194;SDS011;64964;48.694;21.206;2023-06-10T03:27:22;3.30;;;3.00;;
76194;SDS011;64964;48.694;21.206;2023-06-10T03:29:48;4.57;;;3.17;;
76194;SDS011;64964;48.694;21.206;2023-06-10T03:32:13;3.60;;;3.00;;
76194;SDS011;64964;48.694;21.206;2023-06-10T03:34:38;4.13;;;3.10;;
76194;SDS011;64964;48.694;21.206;2023-06-10T03:37:05;3.47;;;3.05;;
76194;SDS011;64964;48.694;21.206;2023-06-10T03:39:30;4.68;;;3.20;;
76194;SDS011;64964;48.694;21.206;2023-06-10T03:41:56;3.77;;;3.40;;
76194;SDS011;64964;48.694;21.206;2023-06-10T03:44:24;5.15;;;3.40;;
76194;SDS011;64964;48.694;21.206;2023-06-10T03:46:54;3.57;;;3.23;;
76194;SDS011;64964;48.694;21.206;2023-06-10T03:49:20;3.63;;;2.80;;
76194;SDS011;64964;48.694;21.206;2023-06-10T03:51:45;3.50;;;3.20;;
76194;SDS011;64964;48.694;21.206;2023-06-10T03:54:11;3.30;;;3.00;;
76194;SDS011;64964;48.694;21.206;2023-06-10T03:56:36;3.87;;;2.73;;
76194;SDS011;64964;48.694;21.206;2023-06-10T03:59:01;3.40;;;2.97;;
76194;SDS011;64964;48.694;21.206;2023-06-10T04:01:27;4.10;;;3.20;;
76194;SDS011;64964;48.694;21.206;2023-06-10T04:03:53;4.37;;;2.70;;
76194;SDS011;64964;48.694;21.206;2023-06-10T04:06:19;4.10;;;3.10;;
76194;SDS011;64964;48.694;21.206;2023-06-10T04:08:46;3.92;;;3.00;;
76194;SDS011;64964;48.694;21.206;2023-06-10T04:11:12;3.25;;;2.83;;
76194;SDS011;64964;48.694;21.206;2023-06-10T04:13:37;4.27;;;2.60;;
76194;SDS011;64964;48.694;21.206;2023-06-10T04:16:03;3.63;;;3.07;;
76194;SDS011;64964;48.694;21.206;2023-06-10T04:18:28;3.60;;;2.90;;
76194;SDS011;64964;48.694;21.206;2023-06-10T04:20:54;3.63;;;3.20;;
76194;SDS011;64964;48.694;21.206;2023-06-10T04:23:20;5.97;;;3.17;;
76194;SDS011;64964;48.694;21.206;2023-06-10T04:25:45;5.17;;;2.80;;
76194;SDS011;64964;48.694;21.206;2023-06-10T04:28:11;3.17;;;2.80;;
76194;SDS011;64964;48.694;21.206;2023-06-10T04:30:37;3.87;;;2.80;;
76194;SDS011;64964;48.694;21.206;2023-06-10T04:33:02;3.53;;;2.90;;
76194;SDS011;64964;48.694;21.206;2023-06-10T04:35:27;5.80;;;3.10;;
76194;SDS011;64964;48.694;21.206;2023-06-10T04:37:53;5.43;;;2.60;;
76194;SDS011;64964;48.694;21.206;2023-06-10T04:40:19;4.75;;;3.10;;
76194;SDS011;64964;48.694;21.206;2023-06-10T04:42:44;3.77;;;2.80;;
76194;SDS011;64964;48.694;21.206;2023-06-10T04:45:10;4.25;;;3.20;;
76194;SDS011;64964;48.694;21.206;2023-06-10T04:47:36;4.45;;;2.88;;
76194;SDS011;64964;48.694;21.206;2023-06-10T04:50:02;3.13;;;2.83;;
76194;SDS011;64964;48.694;21.206;2023-06-10T04:52:29;3.83;;;2.70;;
76194;SDS011;64964;48.694;21.206;2023-06-10T04:54:54;3.87;;;2.90;;
76194;SDS011;64964;48.694;21.206;2023-06-10T04:57:20;4.80;;;2.90;;
76194;SDS011;64964;48.694;21.206;2023-06-10T04:59:46;3.35;;;2.97;;
76194;SDS011;64964;48.694;21.206;2023-06-10T05:02:12;8.95;;;2.60;;
76194;SDS011;64964;48.694;21.206;2023-06-10T05:04:37;4.60;;;2.80;;
76194;SDS011;64964;48.694;21.206;2023-06-10T05:07:03;3.80;;;2.90;;
76194;SDS011;64964;48.694;21.206;2023-06-10T05:09:28;2.92;;;2.58;;
76194;SDS011;64964;48.694;21.206;2023-06-10T05:11:54;3.00;;;2.57;;
76194;SDS011;64964;48.694;21.206;2023-06-10T05:14:19;3.97;;;2.90;;
76194;SDS011;64964;48.694;21.206;2023-06-10T05:16:46;3.75;;;2.60;;
76194;SDS011;64964;48.694;21.206;2023-06-10T05:19:11;3.45;;;2.63;;
76194;SDS011;64964;48.694;21.206;2023-06-10T05:21:37;4.80;;;2.70;;
76194;SDS011;64964;48.694;21.206;2023-06-10T05:24:02;3.47;;;2.83;;
76194;SDS011;64964;48.694;21.206;2023-06-10T05:26:28;3.72;;;2.50;;
76194;SDS011;64964;48.694;21.206;2023-06-10T05:28:54;3.90;;;2.60;;
76194;SDS011;64964;48.694;21.206;2023-06-10T05:31:19;4.40;;;3.00;;
76194;SDS011;64964;48.694;21.206;2023-06-10T05:33:44;3.13;;;2.83;;
76194;SDS011;64964;48.694;21.206;2023-06-10T05:36:10;4.60;;;2.70;;
76194;SDS011;64964;48.694;21.206;2023-06-10T05:38:35;4.95;;;2.92;;
76194;SDS011;64964;48.694;21.206;2023-06-10T05:41:01;5.00;;;2.77;;
76194;SDS011;64964;48.694;21.206;2023-06-10T05:43:26;2.90;;;2.50;;
76194;SDS011;64964;48.694;21.206;2023-06-10T05:45:52;3.90;;;2.83;;
76194;SDS011;64964;48.694;21.206;2023-06-10T05:48:17;4.80;;;2.83;;
76194;SDS011;64964;48.694;21.206;2023-06-10T05:50:44;3.53;;;2.90;;
76194;SDS011;64964;48.694;21.206;2023-06-10T05:53:13;3.23;;;2.93;;
76194;SDS011;64964;48.694;21.206;2023-06-10T05:55:45;5.47;;;2.80;;
76194;SDS011;64964;48.694;21.206;2023-06-10T05:58:11;4.13;;;2.65;;
76194;SDS011;64964;48.694;21.206;2023-06-10T06:00:40;5.35;;;2.88;;
76194;SDS011;64964;48.694;21.206;2023-06-10T06:03:07;3.55;;;2.70;;
76194;SDS011;64964;48.694;21.206;2023-06-10T06:05:33;5.23;;;2.93;;
76194;SDS011;64964;48.694;21.206;2023-06-10T06:08:06;3.30;;;2.80;;
76194;SDS011;64964;48.694;21.206;2023-06-10T06:10:32;4.88;;;3.28;;
76194;SDS011;64964;48.694;21.206;2023-06-10T06:12:58;3.00;;;2.70;;
76194;SDS011;64964;48.694;21.206;2023-06-10T06:15:24;3.00;;;2.70;;
76194;SDS011;64964;48.694;21.206;2023-06-10T06:17:50;3.87;;;2.87;;
76194;SDS011;64964;48.694;21.206;2023-06-10T06:20:18;2.85;;;2.53;;
76194;SDS011;64964;48.694;21.206;2023-06-10T06:22:45;4.30;;;2.78;;
76194;SDS011;64964;48.694;21.206;2023-06-10T06:25:11;4.13;;;2.67;;
76194;SDS011;64964;48.694;21.206;2023-06-10T06:27:36;4.30;;;2.80;;
76194;SDS011;64964;48.694;21.206;2023-06-10T06:30:01;4.83;;;2.80;;
76194;SDS011;64964;48.694;21.206;2023-06-10T06:32:27;3.95;;;2.67;;
76194;SDS011;64964;48.694;21.206;2023-06-10T06:34:53;3.33;;;2.90;;
76194;SDS011;64964;48.694;21.206;2023-06-10T06:37:22;4.57;;;2.80;;
76194;SDS011;64964;48.694;21.206;2023-06-10T06:39:51;4.03;;;2.80;;
76194;SDS011;64964;48.694;21.206;2023-06-10T06:42:18;4.63;;;2.58;;
76194;SDS011;64964;48.694;21.206;2023-06-10T06:44:44;7.03;;;2.90;;
76194;SDS011;64964;48.694;21.206;2023-06-10T06:47:10;4.13;;;2.83;;
76194;SDS011;64964;48.694;21.206;2023-06-10T06:49:35;3.60;;;2.83;;
76194;SDS011;64964;48.694;21.206;2023-06-10T06:52:01;4.10;;;2.83;;
76194;SDS011;64964;48.694;21.206;2023-06-10T06:54:27;2.83;;;2.47;;
76194;SDS011;64964;48.694;21.206;2023-06-10T06:56:52;4.37;;;2.90;;
76194;SDS011;64964;48.694;21.206;2023-06-10T06:59:18;5.13;;;2.50;;
76194;SDS011;64964;48.694;21.206;2023-06-10T07:01:44;2.67;;;2.33;;
76194;SDS011;64964;48.694;21.206;2023-06-10T07:04:12;2.80;;;2.47;;
76194;SDS011;64964;48.694;21.206;2023-06-10T07:06:39;2.80;;;2.55;;
76194;SDS011;64964;48.694;21.206;2023-06-10T07:09:04;4.70;;;2.60;;
76194;SDS011;64964;48.694;21.206;2023-06-10T07:11:30;4.55;;;2.55;;
76194;SDS011;64964;48.694;21.206;2023-06-10T07:13:55;4.03;;;2.43;;
76194;SDS011;64964;48.694;21.206;2023-06-10T07:16:21;3.10;;;2.43;;
76194;SDS011;64964;48.694;21.206;2023-06-10T07:18:47;4.00;;;2.65;;
76194;SDS011;64964;48.694;21.206;2023-06-10T07:21:12;3.13;;;2.50;;
76194;SDS011;64964;48.694;21.206;2023-06-10T07:23:41;3.70;;;2.63;;
76194;SDS011;64964;48.694;21.206;2023-06-10T07:26:07;3.80;;;2.50;;
76194;SDS011;64964;48.694;21.206;2023-06-10T07:28:35;2.50;;;2.30;;
76194;SDS011;64964;48.694;21.206;2023-06-10T07:31:01;4.43;;;2.60;;
76194;SDS011;64964;48.694;21.206;2023-06-10T07:33:27;2.87;;;2.23;;
76194;SDS011;64964;48.694;21.206;2023-06-10T07:35:52;2.97;;;2.50;;
76194;SDS011;64964;48.694;21.206;2023-06-10T07:38:17;3.50;;;2.50;;
76194;SDS011;64964;48.694;21.206;2023-06-10T07:40:43;3.70;;;2.50;;
76194;SDS011;64964;48.694;21.206;2023-06-10T07:43:08;3.40;;;2.40;;
76194;SDS011;64964;48.694;21.206;2023-06-10T07:45:33;2.67;;;2.40;;
76194;SDS011;64964;48.694;21.206;2023-06-10T07:47:59;3.20;;;2.37;;
76194;SDS011;64964;48.694;21.206;2023-06-10T07:50:24;4.75;;;2.80;;
76194;SDS011;64964;48.694;21.206;2023-06-10T07:52:50;4.03;;;2.50;;
76194;SDS011;64964;48.694;21.206;2023-06-10T07:55:15;3.40;;;2.53;;
76194;SDS011;64964;48.694;21.206;2023-06-10T07:57:40;3.57;;;2.60;;
76194;SDS011;64964;48.694;21.206;2023-06-10T08:00:06;2.83;;;2.60;;
76194;SDS011;64964;48.694;21.206;2023-06-10T08:02:32;3.23;;;2.63;;
76194;SDS011;64964;48.694;21.206;2023-06-10T08:04:57;3.92;;;2.72;;
76194;SDS011;64964;48.694;21.206;2023-06-10T08:07:22;4.33;;;2.57;;
76194;SDS011;64964;48.694;21.206;2023-06-10T08:09:48;3.83;;;2.73;;
76194;SDS011;64964;48.694;21.206;2023-06-10T08:12:14;3.13;;;2.60;;
76194;SDS011;64964;48.694;21.206;2023-06-10T08:14:39;3.07;;;2.67;;
76194;SDS011;64964;48.694;21.206;2023-06-10T08:17:04;4.00;;;2.73;;
76194;SDS011;64964;48.694;21.206;2023-06-10T08:19:31;3.30;;;3.00;;
76194;SDS011;64964;48.694;21.206;2023-06-10T08:21:57;3.00;;;2.70;;
76194;SDS011;64964;48.694;21.206;2023-06-10T08:24:22;3.85;;;2.88;;
76194;SDS011;64964;48.694;21.206;2023-06-10T08:26:47;4.83;;;2.77;;
76194;SDS011;64964;48.694;21.206;2023-06-10T08:29:13;3.03;;;2.60;;
76194;SDS011;64964;48.694;21.206;2023-06-10T08:31:44;2.97;;;2.50;;
76194;SDS011;64964;48.694;21.206;2023-06-10T08:34:10;5.13;;;2.80;;
76194;SDS011;64964;48.694;21.206;2023-06-10T08:36:35;3.95;;;2.80;;
76194;SDS011;64964;48.694;21.206;2023-06-10T08:39:01;2.90;;;2.70;;
76194;SDS011;64964;48.694;21.206;2023-06-10T08:41:28;3.08;;;2.70;;
76194;SDS011;64964;48.694;21.206;2023-06-10T08:44:10;3.20;;;2.67;;
76194;SDS011;64964;48.694;21.206;2023-06-10T08:46:45;3.13;;;2.78;;
76194;SDS011;64964;48.694;21.206;2023-06-10T08:49:11;2.97;;;2.72;;
76194;SDS011;64964;48.694;21.206;2023-06-10T08:51:50;2.88;;;2.53;;
76194;SDS011;64964;48.694;21.206;2023-06-10T08:54:20;3.58;;;2.65;;
76194;SDS011;64964;48.694;21.206;2023-06-10T08:56:48;2.80;;;2.50;;
76194;SDS011;64964;48.694;21.206;2023-06-10T08:59:16;4.13;;;3.00;;
76194;SDS011;64964;48.694;21.206;2023-06-10T09:01:42;3.22;;;2.78;;
76194;SDS011;64964;48.694;21.206;2023-06-10T09:04:08;3.15;;;2.70;;
76194;SDS011;64964;48.694;21.206;2023-06-10T09:06:34;3.87;;;2.80;;
76194;SDS011;64964;48.694;21.206;2023-06-10T09:09:00;5.13;;;2.70;;
76194;SDS011;64964;48.694;21.206;2023-06-10T09:11:27;2.85;;;2.60;;
76194;SDS011;64964;48.694;21.206;2023-06-10T09:13:52;4.00;;;2.50;;
76194;SDS011;64964;48.694;21.206;2023-06-10T09:16:18;3.57;;;2.77;;
76194;SDS011;64964;48.694;21.206;2023-06-10T09:18:43;4.90;;;2.63;;
76194;SDS011;64964;48.694;21.206;2023-06-10T09:21:09;4.77;;;3.30;;
76194;SDS011;64964;48.694;21.206;2023-06-10T09:23:35;5.70;;;2.85;;
76194;SDS011;64964;48.694;21.206;2023-06-10T09:26:02;5.63;;;2.67;;
76194;SDS011;64964;48.694;21.206;2023-06-10T09:28:30;5.57;;;2.90;;
76194;SDS011;64964;48.694;21.206;2023-06-10T09:31:04;4.20;;;2.75;;
76194;SDS011;64964;48.694;21.206;2023-06-10T09:33:32;2.90;;;2.70;;
76194;SDS011;64964;48.694;21.206;2023-06-10T09:35:57;3.70;;;2.70;;
76194;SDS011;64964;48.694;21.206;2023-06-10T09:38:29;4.68;;;2.92;;
76194;SDS011;64964;48.694;21.206;2023-06-10T09:40:56;3.80;;;2.75;;
76194;SDS011;64964;48.694;21.206;2023-06-10T09:43:22;4.67;;;3.10;;
76194;SDS011;64964;48.694;21.206;2023-06-10T09:45:51;3.58;;;2.97;;
76194;SDS011;64964;48.694;21.206;2023-06-10T09:48:19;7.13;;;3.00;;
76194;SDS011;64964;48.694;21.206;2023-06-10T09:50:45;3.40;;;3.10;;
76194;SDS011;64964;48.694;21.206;2023-06-10T09:53:12;3.70;;;2.90;;
76194;SDS011;64964;48.694;21.206;2023-06-10T09:55:38;4.67;;;3.13;;
76194;SDS011;64964;48.694;21.206;2023-06-10T09:58:04;5.75;;;2.88;;
76194;SDS011;64964;48.694;21.206;2023-06-10T10:00:31;2.73;;;2.50;;
76194;SDS011;64964;48.694;21.206;2023-06-10T10:02:58;4.13;;;3.50;;
76194;SDS011;64964;48.694;21.206;2023-06-10T10:05:23;6.40;;;3.38;;
76194;SDS011;64964;48.694;21.206;2023-06-10T10:07:49;5.90;;;3.40;;
76194;SDS011;64964;48.694;21.206;2023-06-10T10:10:16;6.07;;;3.10;;
76194;SDS011;64964;48.694;21.206;2023-06-10T10:12:42;3.47;;;3.03;;
76194;SDS011;64964;48.694;21.206;2023-06-10T10:15:11;5.03;;;3.20;;
76194;SDS011;64964;48.694;21.206;2023-06-10T10:17:37;4.75;;;3.10;;
76194;SDS011;64964;48.694;21.206;2023-06-10T10:20:08;7.47;;;3.65;;
76194;SDS011;64964;48.694;21.206;2023-06-10T10:22:40;4.90;;;3.72;;
76194;SDS011;64964;48.694;21.206;2023-06-10T10:25:10;4.97;;;3.42;;
76194;SDS011;64964;48.694;21.206;2023-06-10T10:30:24;5.50;;;3.80;;
76194;SDS011;64964;48.694;21.206;2023-06-10T10:33:00;6.53;;;3.80;;
76194;SDS011;64964;48.694;21.206;2023-06-10T10:35:32;5.63;;;3.50;;
76194;SDS011;64964;48.694;21.206;2023-06-10T10:37:58;4.85;;;3.53;;
76194;SDS011;64964;48.694;21.206;2023-06-10T10:40:25;4.68;;;3.70;;
76194;SDS011;64964;48.694;21.206;2023-06-10T10:42:55;5.30;;;3.77;;
76194;SDS011;64964;48.694;21.206;2023-06-10T10:45:21;11.83;;;3.63;;
76194;SDS011;64964;48.694;21.206;2023-06-10T10:47:48;5.82;;;3.67;;
76194;SDS011;64964;48.694;21.206;2023-06-10T10:50:18;8.25;;;4.07;;
76194;SDS011;64964;48.694;21.206;2023-06-10T10:53:05;7.70;;;3.88;;
76194;SDS011;64964;48.694;21.206;2023-06-10T10:55:30;9.00;;;3.85;;
76194;SDS011;64964;48.694;21.206;2023-06-10T10:57:56;5.17;;;3.80;;
76194;SDS011;64964;48.694;21.206;2023-06-10T11:00:27;4.55;;;3.80;;
76194;SDS011;64964;48.694;21.206;2023-06-10T11:02:52;5.43;;;3.90;;
76194;SDS011;64964;48.694;21.206;2023-06-10T11:05:20;5.30;;;3.67;;
76194;SDS011;64964;48.694;21.206;2023-06-10T11:07:57;6.50;;;3.90;;
76194;SDS011;64964;48.694;21.206;2023-06-10T11:13:20;8.40;;;4.30;;
76194;SDS011;64964;48.694;21.206;2023-06-10T11:15:48;7.13;;;4.67;;
76194;SDS011;64964;48.694;21.206;2023-06-10T11:18:27;7.30;;;4.63;;
76194;SDS011;64964;48.694;21.206;2023-06-10T11:31:20;6.28;;;4.90;;
76194;SDS011;64964;48.694;21.206;2023-06-10T11:33:52;5.57;;;4.88;;
76194;SDS011;64964;48.694;21.206;2023-06-10T11:36:18;9.23;;;4.60;;
76194;SDS011;64964;48.694;21.206;2023-06-10T11:38:44;9.93;;;5.40;;
76194;SDS011;64964;48.694;21.206;2023-06-10T11:41:10;7.88;;;5.25;;
76194;SDS011;64964;48.694;21.206;2023-06-10T11:43:38;5.87;;;5.20;;
76194;SDS011;64964;48.694;21.206;2023-06-10T11:46:07;7.50;;;5.18;;
76194;SDS011;64964;48.694;21.206;2023-06-10T11:48:33;6.93;;;4.90;;
76194;SDS011;64964;48.694;21.206;2023-06-10T11:50:59;6.73;;;5.77;;
76194;SDS011;64964;48.694;21.206;2023-06-10T11:53:25;6.43;;;5.33;;
76194;SDS011;64964;48.694;21.206;2023-06-10T11:55:50;9.83;;;5.03;;
76194;SDS011;64964;48.694;21.206;2023-06-10T11:58:17;7.30;;;4.60;;
76194;SDS011;64964;48.694;21.206;2023-06-10T12:03:13;6.88;;;4.38;;
76194;SDS011;64964;48.694;21.206;2023-06-10T12:05:39;5.43;;;4.37;;
76194;SDS011;64964;48.694;21.206;2023-06-10T12:08:11;5.15;;;3.92;;
76194;SDS011;64964;48.694;21.206;2023-06-10T12:10:40;5.33;;;4.30;;
76194;SDS011;64964;48.694;21.206;2023-06-10T12:13:07;5.63;;;4.50;;
76194;SDS011;64964;48.694;21.206;2023-06-10T12:15:34;7.57;;;4.70;;
76194;SDS011;64964;48.694;21.206;2023-06-10T12:17:59;6.73;;;4.57;;
76194;SDS011;64964;48.694;21.206;2023-06-10T12:20:26;5.57;;;4.75;;
76194;SDS011;64964;48.694;21.206;2023-06-10T12:22:53;6.13;;;4.60;;
76194;SDS011;64964;48.694;21.206;2023-06-10T12:25:23;6.27;;;4.90;;
76194;SDS011;64964;48.694;21.206;2023-06-10T12:27:54;6.40;;;5.07;;
76194;SDS011;64964;48.694;21.206;2023-06-10T12:30:22;11.32;;;5.60;;
76194;SDS011;64964;48.694;21.206;2023-06-10T12:32:50;8.55;;;5.85;;
76194;SDS011;64964;48.694;21.206;2023-06-10T12:35:18;8.27;;;5.97;;
76194;SDS011;64964;48.694;21.206;2023-06-10T12:38:02;9.63;;;5.93;;
76194;SDS011;64964;48.694;21.206;2023-06-10T12:40:32;8.10;;;5.90;;
76194;SDS011;64964;48.694;21.206;2023-06-10T12:43:07;8.15;;;6.20;;
76194;SDS011;64964;48.694;21.206;2023-06-10T12:45:33;8.40;;;7.00;;
76194;SDS011;64964;48.694;21.206;2023-06-10T12:50:35;8.50;;;7.03;;
76194;SDS011;64964;48.694;21.206;2023-06-10T12:53:05;9.05;;;6.80;;
76194;SDS011;64964;48.694;21.206;2023-06-10T12:55:30;8.03;;;7.03;;
76194;SDS011;64964;48.694;21.206;2023-06-10T12:57:57;9.35;;;7.35;;
76194;SDS011;64964;48.694;21.206;2023-06-10T13:00:23;9.90;;;7.65;;
76194;SDS011;64964;48.694;21.206;2023-06-10T13:02:51;13.40;;;8.20;;
76194;SDS011;64964;48.694;21.206;2023-06-10T13:05:18;8.53;;;7.73;;
76194;SDS011;64964;48.694;21.206;2023-06-10T13:07:45;9.85;;;8.38;;
76194;SDS011;64964;48.694;21.206;2023-06-10T13:10:10;10.05;;;8.07;;
76194;SDS011;64964;48.694;21.206;2023-06-10T13:12:36;9.17;;;8.13;;
76194;SDS011;64964;48.694;21.206;2023-06-10T13:15:02;10.70;;;8.20;;
76194;SDS011;64964;48.694;21.206;2023-06-10T13:17:28;10.27;;;8.67;;
76194;SDS011;64964;48.694;21.206;2023-06-10T13:19:53;8.93;;;8.02;;
76194;SDS011;64964;48.694;21.206;2023-06-10T13:22:18;10.23;;;8.43;;
76194;SDS011;64964;48.694;21.206;2023-06-10T13:24:45;11.68;;;8.50;;
76194;SDS011;64964;48.694;21.206;2023-06-10T13:27:11;10.33;;;8.10;;
76194;SDS011;64964;48.694;21.206;2023-06-10T13:29:39;9.80;;;8.07;;
76194;SDS011;64964;48.694;21.206;2023-06-10T13:32:05;8.80;;;7.35;;
76194;SDS011;64964;48.694;21.206;2023-06-10T13:34:31;9.73;;;7.72;;
76194;SDS011;64964;48.694;21.206;2023-06-10T13:36:56;10.90;;;7.67;;
76194;SDS011;64964;48.694;21.206;2023-06-10T13:39:22;9.53;;;7.60;;
76194;SDS011;64964;48.694;21.206;2023-06-10T13:41:47;8.43;;;7.63;;
76194;SDS011;64964;48.694;21.206;2023-06-10T13:44:12;10.53;;;7.73;;
76194;SDS011;64964;48.694;21.206;2023-06-10T13:46:38;9.47;;;8.57;;
76194;SDS011;64964;48.694;21.206;2023-06-10T13:49:03;11.57;;;8.63;;
76194;SDS011;64964;48.694;21.206;2023-06-10T13:51:28;11.97;;;8.27;;
76194;SDS011;64964;48.694;21.206;2023-06-10T13:53:54;10.55;;;7.72;;
76194;SDS011;64964;48.694;21.206;2023-06-10T13:56:19;9.83;;;7.80;;
76194;SDS011;64964;48.694;21.206;2023-06-10T13:58:44;9.80;;;8.80;;
76194;SDS011;64964;48.694;21.206;2023-06-10T14:01:10;12.30;;;8.67;;
76194;SDS011;64964;48.694;21.206;2023-06-10T14:03:35;10.93;;;8.90;;
76194;SDS011;64964;48.694;21.206;2023-06-10T14:06:00;10.70;;;8.40;;
76194;SDS011;64964;48.694;21.206;2023-06-10T14:08:26;11.60;;;9.07;;
76194;SDS011;64964;48.694;21.206;2023-06-10T14:10:52;10.20;;;8.77;;
76194;SDS011;64964;48.694;21.206;2023-06-10T14:13:17;13.30;;;10.30;;
76194;SDS011;64964;48.694;21.206;2023-06-10T14:15:43;13.23;;;10.35;;
76194;SDS011;64964;48.694;21.206;2023-06-10T14:18:09;12.57;;;9.93;;
76194;SDS011;64964;48.694;21.206;2023-06-10T14:20:34;12.02;;;10.30;;
76194;SDS011;64964;48.694;21.206;2023-06-10T14:23:00;12.17;;;10.97;;
76194;SDS011;64964;48.694;21.206;2023-06-10T14:25:25;12.57;;;11.27;;
76194;SDS011;64964;48.694;21.206;2023-06-10T14:27:50;15.40;;;10.77;;
76194;SDS011;64964;48.694;21.206;2023-06-10T14:30:16;14.65;;;11.98;;
76194;SDS011;64964;48.694;21.206;2023-06-10T14:32:42;13.60;;;11.70;;
76194;SDS011;64964;48.694;21.206;2023-06-10T14:35:07;14.48;;;11.65;;
76194;SDS011;64964;48.694;21.206;2023-06-10T14:37:33;13.60;;;12.20;;
76194;SDS011;64964;48.694;21.206;2023-06-10T14:39:58;16.60;;;11.90;;
76194;SDS011;64964;48.694;21.206;2023-06-10T14:42:24;13.97;;;12.47;;
76194;SDS011;64964;48.694;21.206;2023-06-10T14:44:49;17.43;;;12.43;;
76194;SDS011;64964;48.694;21.206;2023-06-10T14:47:15;17.23;;;12.18;;
76194;SDS011;64964;48.694;21.206;2023-06-10T14:49:41;13.73;;;11.77;;
76194;SDS011;64964;48.694;21.206;2023-06-10T14:52:07;17.60;;;12.37;;